KCDN/CDN METAR and TAF weather

Enter ICAO airport designator
Station Type Date Time Source
KCDN METAR 2019/04/21 22:15 UTC NOAA

KCDN 212215Z AUTO 32004KT 10SM SCT055 19/05 A3008 RMK AO2


Station Type Date Time Source
KCDN Decoded METAR 2019/04/21 22:15 UTC NOAA

Station name not available
Apr 21, 2019 - 06:15 PM EDT / 2019.04.21 2215 UTC
Wind: from the NW (320 degrees) at 5 MPH (4 KT):0
Visibility: 10 mile(s):0
Sky conditions: partly cloudy
Temperature: 66 F (19 C)
Dew Point: 41 F (5 C)
Relative Humidity: 39%
Pressure (altimeter): 30.08 in. Hg (1018 hPa)
ob: KCDN 212215Z AUTO 32004KT 10SM SCT055 19/05 A3008 RMK AO2
cycle: 22

Station Type Date Time Source
KCDN TAF UTC NOAA

Error!

Example: see airport list